sensor_id;sensor_type;location;lat;lon;timestamp;P1;durP1;ratioP1;P2;durP2;ratioP2
76593;SDS011;65482;50.240;14.302;2022-12-07T00:00:50;9.38;;;3.78;;
76593;SDS011;65482;50.240;14.302;2022-12-07T00:03:16;8.10;;;3.45;;
76593;SDS011;65482;50.240;14.302;2022-12-07T00:05:41;8.40;;;3.42;;
76593;SDS011;65482;50.240;14.302;2022-12-07T00:08:07;8.77;;;3.03;;
76593;SDS011;65482;50.240;14.302;2022-12-07T00:10:33;7.78;;;2.63;;
76593;SDS011;65482;50.240;14.302;2022-12-07T00:12:59;8.38;;;3.25;;
76593;SDS011;65482;50.240;14.302;2022-12-07T00:15:25;6.10;;;2.90;;
76593;SDS011;65482;50.240;14.302;2022-12-07T00:17:50;8.80;;;3.03;;
76593;SDS011;65482;50.240;14.302;2022-12-07T00:20:16;7.65;;;2.97;;
76593;SDS011;65482;50.240;14.302;2022-12-07T00:22:41;6.25;;;2.15;;
76593;SDS011;65482;50.240;14.302;2022-12-07T00:25:07;11.38;;;2.70;;
76593;SDS011;65482;50.240;14.302;2022-12-07T00:27:32;6.93;;;2.35;;
76593;SDS011;65482;50.240;14.302;2022-12-07T00:29:58;5.82;;;2.88;;
76593;SDS011;65482;50.240;14.302;2022-12-07T00:32:23;7.18;;;3.28;;
76593;SDS011;65482;50.240;14.302;2022-12-07T00:34:49;8.50;;;3.50;;
76593;SDS011;65482;50.240;14.302;2022-12-07T00:37:14;7.78;;;2.90;;
76593;SDS011;65482;50.240;14.302;2022-12-07T00:39:40;8.45;;;3.38;;
76593;SDS011;65482;50.240;14.302;2022-12-07T00:42:06;5.63;;;2.85;;
76593;SDS011;65482;50.240;14.302;2022-12-07T00:44:32;4.68;;;2.42;;
76593;SDS011;65482;50.240;14.302;2022-12-07T00:46:57;4.97;;;2.25;;
76593;SDS011;65482;50.240;14.302;2022-12-07T00:49:23;4.85;;;2.35;;
76593;SDS011;65482;50.240;14.302;2022-12-07T00:51:48;4.22;;;1.95;;
76593;SDS011;65482;50.240;14.302;2022-12-07T00:54:14;5.85;;;2.40;;
76593;SDS011;65482;50.240;14.302;2022-12-07T00:56:40;3.53;;;2.00;;
76593;SDS011;65482;50.240;14.302;2022-12-07T00:59:06;3.75;;;2.30;;
76593;SDS011;65482;50.240;14.302;2022-12-07T01:01:32;5.00;;;2.10;;
76593;SDS011;65482;50.240;14.302;2022-12-07T01:04:00;3.88;;;2.20;;
76593;SDS011;65482;50.240;14.302;2022-12-07T01:06:28;5.05;;;2.70;;
76593;SDS011;65482;50.240;14.302;2022-12-07T01:08:55;7.22;;;3.22;;
76593;SDS011;65482;50.240;14.302;2022-12-07T01:11:22;5.82;;;2.80;;
76593;SDS011;65482;50.240;14.302;2022-12-07T01:13:53;5.43;;;2.88;;
76593;SDS011;65482;50.240;14.302;2022-12-07T01:16:20;6.82;;;3.70;;
76593;SDS011;65482;50.240;14.302;2022-12-07T01:18:47;6.85;;;2.88;;
76593;SDS011;65482;50.240;14.302;2022-12-07T01:21:18;5.18;;;3.00;;
76593;SDS011;65482;50.240;14.302;2022-12-07T01:23:46;7.97;;;4.30;;
76593;SDS011;65482;50.240;14.302;2022-12-07T01:26:12;7.22;;;3.17;;
76593;SDS011;65482;50.240;14.302;2022-12-07T01:28:40;6.68;;;2.97;;
76593;SDS011;65482;50.240;14.302;2022-12-07T01:31:06;4.30;;;2.55;;
76593;SDS011;65482;50.240;14.302;2022-12-07T01:33:36;4.50;;;2.58;;
76593;SDS011;65482;50.240;14.302;2022-12-07T01:38:39;4.10;;;2.53;;
76593;SDS011;65482;50.240;14.302;2022-12-07T01:41:04;4.93;;;2.70;;
76593;SDS011;65482;50.240;14.302;2022-12-07T01:43:31;5.55;;;3.00;;
76593;SDS011;65482;50.240;14.302;2022-12-07T01:45:58;6.90;;;2.60;;
76593;SDS011;65482;50.240;14.302;2022-12-07T01:48:26;5.70;;;2.72;;
76593;SDS011;65482;50.240;14.302;2022-12-07T01:50:54;4.80;;;2.65;;
76593;SDS011;65482;50.240;14.302;2022-12-07T01:53:26;6.85;;;3.22;;
76593;SDS011;65482;50.240;14.302;2022-12-07T01:55:55;6.38;;;2.85;;
76593;SDS011;65482;50.240;14.302;2022-12-07T01:58:21;4.82;;;2.78;;
76593;SDS011;65482;50.240;14.302;2022-12-07T02:00:48;6.57;;;2.97;;
76593;SDS011;65482;50.240;14.302;2022-12-07T02:03:16;5.90;;;2.95;;
76593;SDS011;65482;50.240;14.302;2022-12-07T02:05:45;5.63;;;2.80;;
76593;SDS011;65482;50.240;14.302;2022-12-07T02:08:12;4.47;;;2.58;;
76593;SDS011;65482;50.240;14.302;2022-12-07T02:10:38;5.50;;;2.92;;
76593;SDS011;65482;50.240;14.302;2022-12-07T02:13:38;6.07;;;3.30;;
76593;SDS011;65482;50.240;14.302;2022-12-07T02:18:52;5.68;;;3.00;;
76593;SDS011;65482;50.240;14.302;2022-12-07T02:26:55;6.00;;;3.38;;
76593;SDS011;65482;50.240;14.302;2022-12-07T02:32:19;5.35;;;3.10;;
76593;SDS011;65482;50.240;14.302;2022-12-07T02:34:56;6.57;;;3.35;;
76593;SDS011;65482;50.240;14.302;2022-12-07T02:37:40;3.97;;;2.55;;
76593;SDS011;65482;50.240;14.302;2022-12-07T02:42:53;4.90;;;3.10;;
76593;SDS011;65482;50.240;14.302;2022-12-07T02:45:24;4.90;;;2.90;;
76593;SDS011;65482;50.240;14.302;2022-12-07T02:47:53;3.78;;;2.65;;
76593;SDS011;65482;50.240;14.302;2022-12-07T02:50:22;4.88;;;2.60;;
76593;SDS011;65482;50.240;14.302;2022-12-07T02:52:47;4.55;;;2.85;;
76593;SDS011;65482;50.240;14.302;2022-12-07T02:55:15;4.90;;;2.80;;
76593;SDS011;65482;50.240;14.302;2022-12-07T03:00:52;5.53;;;2.83;;
76593;SDS011;65482;50.240;14.302;2022-12-07T03:03:27;4.70;;;2.90;;
76593;SDS011;65482;50.240;14.302;2022-12-07T03:09:06;4.72;;;2.60;;
76593;SDS011;65482;50.240;14.302;2022-12-07T03:14:13;4.32;;;2.67;;
76593;SDS011;65482;50.240;14.302;2022-12-07T03:16:42;4.00;;;2.60;;
76593;SDS011;65482;50.240;14.302;2022-12-07T03:21:47;4.55;;;2.58;;
76593;SDS011;65482;50.240;14.302;2022-12-07T03:24:19;3.17;;;2.30;;
76593;SDS011;65482;50.240;14.302;2022-12-07T03:26:49;4.28;;;2.50;;
76593;SDS011;65482;50.240;14.302;2022-12-07T03:29:20;3.78;;;2.50;;
76593;SDS011;65482;50.240;14.302;2022-12-07T03:35:28;4.18;;;2.67;;
76593;SDS011;65482;50.240;14.302;2022-12-07T03:43:20;4.65;;;2.55;;
76593;SDS011;65482;50.240;14.302;2022-12-07T03:48:41;3.65;;;2.70;;
76593;SDS011;65482;50.240;14.302;2022-12-07T03:51:21;5.15;;;2.83;;
76593;SDS011;65482;50.240;14.302;2022-12-07T03:54:01;5.20;;;2.80;;
76593;SDS011;65482;50.240;14.302;2022-12-07T03:56:33;4.70;;;2.78;;
76593;SDS011;65482;50.240;14.302;2022-12-07T03:59:00;5.15;;;3.25;;
76593;SDS011;65482;50.240;14.302;2022-12-07T04:01:25;6.53;;;3.53;;
76593;SDS011;65482;50.240;14.302;2022-12-07T04:03:52;9.63;;;4.00;;
76593;SDS011;65482;50.240;14.302;2022-12-07T04:06:18;6.97;;;3.55;;
76593;SDS011;65482;50.240;14.302;2022-12-07T04:08:43;7.25;;;3.55;;
76593;SDS011;65482;50.240;14.302;2022-12-07T04:11:09;6.35;;;3.55;;
76593;SDS011;65482;50.240;14.302;2022-12-07T04:13:35;5.97;;;3.55;;
76593;SDS011;65482;50.240;14.302;2022-12-07T04:16:20;4.97;;;3.13;;
76593;SDS011;65482;50.240;14.302;2022-12-07T04:18:46;4.03;;;3.25;;
76593;SDS011;65482;50.240;14.302;2022-12-07T04:21:11;6.43;;;3.20;;
76593;SDS011;65482;50.240;14.302;2022-12-07T04:23:37;4.97;;;3.20;;
76593;SDS011;65482;50.240;14.302;2022-12-07T04:26:03;5.10;;;3.17;;
76593;SDS011;65482;50.240;14.302;2022-12-07T04:28:29;3.47;;;2.88;;
76593;SDS011;65482;50.240;14.302;2022-12-07T04:30:54;4.72;;;3.25;;
76593;SDS011;65482;50.240;14.302;2022-12-07T04:33:20;4.68;;;2.67;;
76593;SDS011;65482;50.240;14.302;2022-12-07T04:35:45;4.20;;;3.30;;
76593;SDS011;65482;50.240;14.302;2022-12-07T04:38:11;4.78;;;3.58;;
76593;SDS011;65482;50.240;14.302;2022-12-07T04:40:36;6.32;;;3.70;;
76593;SDS011;65482;50.240;14.302;2022-12-07T04:43:02;6.13;;;3.92;;
76593;SDS011;65482;50.240;14.302;2022-12-07T04:45:27;6.43;;;4.15;;
76593;SDS011;65482;50.240;14.302;2022-12-07T04:47:53;8.73;;;4.07;;
76593;SDS011;65482;50.240;14.302;2022-12-07T04:50:18;7.65;;;4.05;;
76593;SDS011;65482;50.240;14.302;2022-12-07T04:52:44;8.73;;;4.28;;
76593;SDS011;65482;50.240;14.302;2022-12-07T04:55:09;11.38;;;5.22;;
76593;SDS011;65482;50.240;14.302;2022-12-07T04:57:35;10.00;;;4.53;;
76593;SDS011;65482;50.240;14.302;2022-12-07T05:00:01;9.40;;;4.40;;
76593;SDS011;65482;50.240;14.302;2022-12-07T05:02:26;13.57;;;5.55;;
76593;SDS011;65482;50.240;14.302;2022-12-07T05:04:52;10.90;;;5.07;;
76593;SDS011;65482;50.240;14.302;2022-12-07T05:07:17;12.75;;;5.18;;
76593;SDS011;65482;50.240;14.302;2022-12-07T05:09:43;8.75;;;4.97;;
76593;SDS011;65482;50.240;14.302;2022-12-07T05:12:09;7.55;;;3.92;;
76593;SDS011;65482;50.240;14.302;2022-12-07T05:14:34;6.20;;;3.30;;
76593;SDS011;65482;50.240;14.302;2022-12-07T05:17:00;7.63;;;4.03;;
76593;SDS011;65482;50.240;14.302;2022-12-07T05:19:25;6.03;;;4.13;;
76593;SDS011;65482;50.240;14.302;2022-12-07T05:21:52;5.80;;;4.35;;
76593;SDS011;65482;50.240;14.302;2022-12-07T05:24:17;5.70;;;4.00;;
76593;SDS011;65482;50.240;14.302;2022-12-07T05:26:43;5.22;;;3.67;;
76593;SDS011;65482;50.240;14.302;2022-12-07T05:29:11;6.05;;;4.18;;
76593;SDS011;65482;50.240;14.302;2022-12-07T05:31:38;4.88;;;3.78;;
76593;SDS011;65482;50.240;14.302;2022-12-07T05:34:03;5.15;;;3.97;;
76593;SDS011;65482;50.240;14.302;2022-12-07T05:36:29;5.80;;;3.70;;
76593;SDS011;65482;50.240;14.302;2022-12-07T05:38:57;6.30;;;4.60;;
76593;SDS011;65482;50.240;14.302;2022-12-07T05:41:23;5.90;;;4.00;;
76593;SDS011;65482;50.240;14.302;2022-12-07T05:44:07;6.60;;;4.32;;
76593;SDS011;65482;50.240;14.302;2022-12-07T05:46:33;8.40;;;5.38;;
76593;SDS011;65482;50.240;14.302;2022-12-07T05:48:58;7.82;;;5.43;;
76593;SDS011;65482;50.240;14.302;2022-12-07T05:51:24;7.13;;;4.80;;
76593;SDS011;65482;50.240;14.302;2022-12-07T05:53:50;6.55;;;4.45;;
76593;SDS011;65482;50.240;14.302;2022-12-07T05:56:16;7.45;;;4.80;;
76593;SDS011;65482;50.240;14.302;2022-12-07T05:58:41;6.22;;;4.43;;
76593;SDS011;65482;50.240;14.302;2022-12-07T06:01:26;8.88;;;4.47;;
76593;SDS011;65482;50.240;14.302;2022-12-07T06:03:51;5.63;;;3.75;;
76593;SDS011;65482;50.240;14.302;2022-12-07T06:06:17;7.82;;;5.35;;
76593;SDS011;65482;50.240;14.302;2022-12-07T06:08:43;7.13;;;4.57;;
76593;SDS011;65482;50.240;14.302;2022-12-07T06:11:10;9.68;;;5.07;;
76593;SDS011;65482;50.240;14.302;2022-12-07T06:13:54;7.28;;;4.63;;
76593;SDS011;65482;50.240;14.302;2022-12-07T06:16:20;8.77;;;4.80;;
76593;SDS011;65482;50.240;14.302;2022-12-07T06:18:45;7.50;;;4.93;;
76593;SDS011;65482;50.240;14.302;2022-12-07T06:21:11;11.00;;;5.60;;
76593;SDS011;65482;50.240;14.302;2022-12-07T06:23:37;12.05;;;6.35;;
76593;SDS011;65482;50.240;14.302;2022-12-07T06:26:03;17.27;;;8.15;;
76593;SDS011;65482;50.240;14.302;2022-12-07T06:28:28;13.05;;;6.53;;
76593;SDS011;65482;50.240;14.302;2022-12-07T06:30:58;14.25;;;7.57;;
76593;SDS011;65482;50.240;14.302;2022-12-07T06:33:25;10.82;;;6.47;;
76593;SDS011;65482;50.240;14.302;2022-12-07T06:35:52;12.50;;;6.10;;
76593;SDS011;65482;50.240;14.302;2022-12-07T06:38:17;10.60;;;5.95;;
76593;SDS011;65482;50.240;14.302;2022-12-07T07:03:40;16.77;;;6.53;;
76593;SDS011;65482;50.240;14.302;2022-12-07T08:16:07;6.22;;;4.10;;
76593;SDS011;65482;50.240;14.302;2022-12-07T08:18:37;6.10;;;4.47;;
76593;SDS011;65482;50.240;14.302;2022-12-07T08:21:05;8.88;;;4.82;;
76593;SDS011;65482;50.240;14.302;2022-12-07T08:23:33;6.90;;;4.60;;
76593;SDS011;65482;50.240;14.302;2022-12-07T08:26:03;7.15;;;4.80;;
76593;SDS011;65482;50.240;14.302;2022-12-07T08:28:30;7.57;;;4.97;;
76593;SDS011;65482;50.240;14.302;2022-12-07T08:31:04;9.43;;;4.55;;
76593;SDS011;65482;50.240;14.302;2022-12-07T08:33:34;8.50;;;5.00;;
76593;SDS011;65482;50.240;14.302;2022-12-07T08:36:02;8.20;;;4.70;;
76593;SDS011;65482;50.240;14.302;2022-12-07T08:38:36;7.43;;;4.78;;
76593;SDS011;65482;50.240;14.302;2022-12-07T08:41:04;11.30;;;4.80;;
76593;SDS011;65482;50.240;14.302;2022-12-07T08:43:32;8.70;;;4.70;;
76593;SDS011;65482;50.240;14.302;2022-12-07T09:00:58;7.90;;;4.75;;
76593;SDS011;65482;50.240;14.302;2022-12-07T09:26:09;7.03;;;4.75;;
76593;SDS011;65482;50.240;14.302;2022-12-07T10:46:27;8.20;;;5.28;;
76593;SDS011;65482;50.240;14.302;2022-12-07T11:39:35;8.90;;;3.95;;
76593;SDS011;65482;50.240;14.302;2022-12-07T11:56:06;7.15;;;4.03;;
76593;SDS011;65482;50.240;14.302;2022-12-07T11:59:45;5.13;;;3.53;;
76593;SDS011;65482;50.240;14.302;2022-12-07T12:42:12;6.13;;;3.08;;
76593;SDS011;65482;50.240;14.302;2022-12-07T12:45:29;5.18;;;2.85;;
76593;SDS011;65482;50.240;14.302;2022-12-07T13:10:50;5.97;;;3.67;;
76593;SDS011;65482;50.240;14.302;2022-12-07T13:15:45;6.25;;;3.75;;
76593;SDS011;65482;50.240;14.302;2022-12-07T13:20:59;8.10;;;4.15;;
76593;SDS011;65482;50.240;14.302;2022-12-07T13:26:22;9.18;;;3.65;;
76593;SDS011;65482;50.240;14.302;2022-12-07T13:37:24;7.38;;;2.92;;
76593;SDS011;65482;50.240;14.302;2022-12-07T13:39:55;7.25;;;3.15;;
76593;SDS011;65482;50.240;14.302;2022-12-07T13:42:32;5.40;;;3.28;;
76593;SDS011;65482;50.240;14.302;2022-12-07T13:45:00;6.25;;;3.17;;
76593;SDS011;65482;50.240;14.302;2022-12-07T13:47:49;8.00;;;3.50;;
76593;SDS011;65482;50.240;14.302;2022-12-07T13:50:28;5.60;;;3.07;;
76593;SDS011;65482;50.240;14.302;2022-12-07T13:52:57;10.90;;;2.97;;
76593;SDS011;65482;50.240;14.302;2022-12-07T13:55:23;4.55;;;3.17;;
76593;SDS011;65482;50.240;14.302;2022-12-07T13:57:51;5.38;;;3.25;;
76593;SDS011;65482;50.240;14.302;2022-12-07T14:00:18;11.75;;;3.33;;
76593;SDS011;65482;50.240;14.302;2022-12-07T14:02:54;4.63;;;2.78;;
76593;SDS011;65482;50.240;14.302;2022-12-07T14:05:28;6.15;;;3.35;;
76593;SDS011;65482;50.240;14.302;2022-12-07T14:10:29;5.05;;;3.40;;
76593;SDS011;65482;50.240;14.302;2022-12-07T14:16:02;6.28;;;3.17;;
76593;SDS011;65482;50.240;14.302;2022-12-07T14:18:38;7.38;;;3.88;;
76593;SDS011;65482;50.240;14.302;2022-12-07T14:23:38;5.85;;;3.38;;
76593;SDS011;65482;50.240;14.302;2022-12-07T14:26:12;5.28;;;3.40;;
76593;SDS011;65482;50.240;14.302;2022-12-07T14:28:42;7.40;;;3.67;;
76593;SDS011;65482;50.240;14.302;2022-12-07T14:31:18;4.43;;;3.10;;
76593;SDS011;65482;50.240;14.302;2022-12-07T14:33:46;5.57;;;3.20;;
76593;SDS011;65482;50.240;14.302;2022-12-07T14:36:12;6.28;;;3.40;;
76593;SDS011;65482;50.240;14.302;2022-12-07T14:38:39;7.22;;;3.88;;
76593;SDS011;65482;50.240;14.302;2022-12-07T14:41:06;6.30;;;3.70;;
76593;SDS011;65482;50.240;14.302;2022-12-07T14:43:57;6.45;;;3.45;;
76593;SDS011;65482;50.240;14.302;2022-12-07T14:46:23;6.15;;;3.55;;
76593;SDS011;65482;50.240;14.302;2022-12-07T14:48:49;5.35;;;3.08;;
76593;SDS011;65482;50.240;14.302;2022-12-07T14:51:14;7.43;;;3.95;;
76593;SDS011;65482;50.240;14.302;2022-12-07T14:53:41;7.50;;;4.03;;
76593;SDS011;65482;50.240;14.302;2022-12-07T14:56:09;9.32;;;4.50;;
76593;SDS011;65482;50.240;14.302;2022-12-07T14:58:40;6.82;;;4.30;;
76593;SDS011;65482;50.240;14.302;2022-12-07T15:54:49;10.90;;;4.97;;
76593;SDS011;65482;50.240;14.302;2022-12-07T15:57:15;46.50;;;21.27;;
76593;SDS011;65482;50.240;14.302;2022-12-07T17:27:41;8.38;;;5.13;;
76593;SDS011;65482;50.240;14.302;2022-12-07T17:36:30;14.85;;;7.20;;
76593;SDS011;65482;50.240;14.302;2022-12-07T17:49:32;13.15;;;6.88;;
76593;SDS011;65482;50.240;14.302;2022-12-07T17:55:54;10.40;;;5.70;;
76593;SDS011;65482;50.240;14.302;2022-12-07T18:02:48;11.17;;;6.30;;
76593;SDS011;65482;50.240;14.302;2022-12-07T18:08:17;10.65;;;6.43;;
76593;SDS011;65482;50.240;14.302;2022-12-07T18:19:55;9.27;;;4.57;;
76593;SDS011;65482;50.240;14.302;2022-12-07T18:53:00;12.35;;;6.88;;
76593;SDS011;65482;50.240;14.302;2022-12-07T18:56:56;12.30;;;6.43;;
76593;SDS011;65482;50.240;14.302;2022-12-07T19:11:03;11.38;;;6.18;;
76593;SDS011;65482;50.240;14.302;2022-12-07T19:21:08;10.82;;;6.68;;
76593;SDS011;65482;50.240;14.302;2022-12-07T19:24:31;11.43;;;6.40;;
76593;SDS011;65482;50.240;14.302;2022-12-07T19:51:29;11.23;;;6.90;;
76593;SDS011;65482;50.240;14.302;2022-12-07T19:54:27;12.55;;;6.82;;
76593;SDS011;65482;50.240;14.302;2022-12-07T19:57:29;13.77;;;7.03;;
76593;SDS011;65482;50.240;14.302;2022-12-07T20:00:51;12.55;;;6.47;;
76593;SDS011;65482;50.240;14.302;2022-12-07T20:04:02;12.77;;;7.07;;
76593;SDS011;65482;50.240;14.302;2022-12-07T20:07:09;12.55;;;7.53;;
76593;SDS011;65482;50.240;14.302;2022-12-07T20:10:23;18.00;;;8.27;;
76593;SDS011;65482;50.240;14.302;2022-12-07T20:14:14;16.48;;;7.93;;
76593;SDS011;65482;50.240;14.302;2022-12-07T20:18:01;21.95;;;10.07;;
76593;SDS011;65482;50.240;14.302;2022-12-07T20:28:38;21.63;;;11.10;;
76593;SDS011;65482;50.240;14.302;2022-12-07T20:31:47;20.05;;;11.52;;
76593;SDS011;65482;50.240;14.302;2022-12-07T20:41:39;19.25;;;9.25;;
76593;SDS011;65482;50.240;14.302;2022-12-07T20:45:14;18.38;;;9.48;;
76593;SDS011;65482;50.240;14.302;2022-12-07T20:49:01;15.27;;;9.23;;
76593;SDS011;65482;50.240;14.302;2022-12-07T20:58:06;14.75;;;8.23;;
76593;SDS011;65482;50.240;14.302;2022-12-07T21:01:15;17.20;;;8.55;;
76593;SDS011;65482;50.240;14.302;2022-12-07T21:04:45;16.80;;;8.60;;
76593;SDS011;65482;50.240;14.302;2022-12-07T21:18:45;14.73;;;7.75;;
76593;SDS011;65482;50.240;14.302;2022-12-07T21:21:41;13.50;;;7.68;;
76593;SDS011;65482;50.240;14.302;2022-12-07T21:24:50;14.68;;;8.20;;
76593;SDS011;65482;50.240;14.302;2022-12-07T21:27:59;15.00;;;7.60;;
76593;SDS011;65482;50.240;14.302;2022-12-07T21:34:51;11.75;;;7.13;;
76593;SDS011;65482;50.240;14.302;2022-12-07T21:37:52;14.38;;;6.95;;
76593;SDS011;65482;50.240;14.302;2022-12-07T21:40:56;15.35;;;8.07;;
76593;SDS011;65482;50.240;14.302;2022-12-07T21:44:18;13.60;;;7.57;;
76593;SDS011;65482;50.240;14.302;2022-12-07T21:47:16;12.13;;;7.03;;
76593;SDS011;65482;50.240;14.302;2022-12-07T21:50:43;12.10;;;6.60;;
76593;SDS011;65482;50.240;14.302;2022-12-07T22:06:54;12.68;;;7.13;;
76593;SDS011;65482;50.240;14.302;2022-12-07T22:09:55;15.48;;;7.50;;
76593;SDS011;65482;50.240;14.302;2022-12-07T22:13:18;15.50;;;8.43;;
76593;SDS011;65482;50.240;14.302;2022-12-07T22:16:38;16.35;;;8.18;;
76593;SDS011;65482;50.240;14.302;2022-12-07T22:20:06;16.85;;;8.27;;
76593;SDS011;65482;50.240;14.302;2022-12-07T22:23:06;15.88;;;7.82;;
76593;SDS011;65482;50.240;14.302;2022-12-07T22:26:21;18.05;;;9.15;;
76593;SDS011;65482;50.240;14.302;2022-12-07T22:29:15;21.38;;;9.68;;
76593;SDS011;65482;50.240;14.302;2022-12-07T22:32:01;20.95;;;10.45;;
76593;SDS011;65482;50.240;14.302;2022-12-07T22:34:54;16.20;;;8.73;;
76593;SDS011;65482;50.240;14.302;2022-12-07T22:38:05;15.25;;;8.75;;
76593;SDS011;65482;50.240;14.302;2022-12-07T22:41:07;15.15;;;8.73;;
76593;SDS011;65482;50.240;14.302;2022-12-07T22:44:12;15.00;;;9.35;;
76593;SDS011;65482;50.240;14.302;2022-12-07T22:47:51;13.55;;;7.28;;
76593;SDS011;65482;50.240;14.302;2022-12-07T22:50:41;13.50;;;7.65;;
76593;SDS011;65482;50.240;14.302;2022-12-07T22:53:28;14.65;;;7.40;;
76593;SDS011;65482;50.240;14.302;2022-12-07T22:56:17;14.95;;;7.72;;
76593;SDS011;65482;50.240;14.302;2022-12-07T22:59:11;13.18;;;7.70;;
76593;SDS011;65482;50.240;14.302;2022-12-07T23:01:43;12.88;;;7.47;;
76593;SDS011;65482;50.240;14.302;2022-12-07T23:04:31;14.80;;;7.43;;
76593;SDS011;65482;50.240;14.302;2022-12-07T23:07:29;15.57;;;7.78;;
76593;SDS011;65482;50.240;14.302;2022-12-07T23:10:21;14.00;;;7.50;;
76593;SDS011;65482;50.240;14.302;2022-12-07T23:13:00;13.05;;;7.03;;
76593;SDS011;65482;50.240;14.302;2022-12-07T23:16:09;12.27;;;6.95;;
76593;SDS011;65482;50.240;14.302;2022-12-07T23:18:46;12.57;;;7.50;;
76593;SDS011;65482;50.240;14.302;2022-12-07T23:21:21;12.43;;;6.90;;
76593;SDS011;65482;50.240;14.302;2022-12-07T23:24:03;11.33;;;6.10;;
76593;SDS011;65482;50.240;14.302;2022-12-07T23:26:34;12.23;;;6.65;;
76593;SDS011;65482;50.240;14.302;2022-12-07T23:29:18;11.73;;;6.63;;
76593;SDS011;65482;50.240;14.302;2022-12-07T23:31:53;15.73;;;8.68;;
76593;SDS011;65482;50.240;14.302;2022-12-07T23:34:29;12.30;;;7.47;;
76593;SDS011;65482;50.240;14.302;2022-12-07T23:37:06;15.30;;;8.30;;
76593;SDS011;65482;50.240;14.302;2022-12-07T23:39:54;15.23;;;7.97;;
76593;SDS011;65482;50.240;14.302;2022-12-07T23:42:34;12.60;;;7.47;;
76593;SDS011;65482;50.240;14.302;2022-12-07T23:45:43;14.13;;;7.40;;
76593;SDS011;65482;50.240;14.302;2022-12-07T23:48:44;12.57;;;6.80;;
76593;SDS011;65482;50.240;14.302;2022-12-07T23:51:31;14.63;;;7.30;;
76593;SDS011;65482;50.240;14.302;2022-12-07T23:54:50;11.90;;;7.22;;
76593;SDS011;65482;50.240;14.302;2022-12-07T23:57:31;12.30;;;7.35;;
